createdAt,value
2023-05-02T00:01:38.794Z,2.49
2023-05-02T00:04:23.995Z,2.00
2023-05-02T00:07:09.302Z,2.26
2023-05-02T00:09:54.853Z,2.19
2023-05-02T00:12:40.274Z,2.28
2023-05-02T00:15:25.465Z,2.13
2023-05-02T00:18:10.983Z,2.20
2023-05-02T00:20:56.354Z,2.15
2023-05-02T00:23:41.507Z,2.29
2023-05-02T00:26:26.914Z,2.10
2023-05-02T00:29:12.437Z,2.11
2023-05-02T00:31:57.655Z,2.06
2023-05-02T00:34:43.029Z,2.19
2023-05-02T00:37:27.934Z,2.17
2023-05-02T00:40:13.398Z,2.10
2023-05-02T00:42:58.822Z,2.25
2023-05-02T00:45:44.044Z,2.16
2023-05-02T00:48:29.440Z,2.03
2023-05-02T00:51:14.874Z,2.09
2023-05-02T00:54:00.226Z,2.37
2023-05-02T00:56:45.639Z,1.99
2023-05-02T00:59:30.955Z,2.10
2023-05-02T01:02:16.286Z,2.21
2023-05-02T01:05:01.559Z,2.08
2023-05-02T01:07:46.822Z,2.18
2023-05-02T01:10:32.378Z,2.25
2023-05-02T01:13:17.702Z,1.99
2023-05-02T01:16:03.381Z,2.08
2023-05-02T01:18:48.554Z,2.06
2023-05-02T01:21:35.463Z,2.06
2023-05-02T01:24:20.354Z,2.20
2023-05-02T01:27:05.731Z,1.86
2023-05-02T01:29:51.203Z,2.15
2023-05-02T01:32:36.527Z,2.21
2023-05-02T01:35:22.003Z,1.89
2023-05-02T01:38:07.306Z,2.02
2023-05-02T01:40:52.623Z,2.00
2023-05-02T01:43:37.767Z,1.92
2023-05-02T01:46:23.240Z,2.10
2023-05-02T01:49:08.714Z,2.24
2023-05-02T01:51:54.055Z,1.93
2023-05-02T01:54:39.323Z,2.19
2023-05-02T01:57:24.372Z,1.99
2023-05-02T02:00:09.171Z,2.12
2023-05-02T02:02:57.548Z,1.92
2023-05-02T02:05:42.953Z,2.05
2023-05-02T02:08:28.303Z,2.01
2023-05-02T02:11:13.682Z,1.96
2023-05-02T02:13:59.128Z,1.85
2023-05-02T02:16:44.737Z,1.90
2023-05-02T02:19:29.887Z,2.00
2023-05-02T02:22:15.195Z,1.87
2023-05-02T02:25:00.840Z,1.95
2023-05-02T02:27:46.291Z,1.94
2023-05-02T02:30:31.670Z,1.94
2023-05-02T02:33:17.049Z,1.81
2023-05-02T02:36:02.381Z,1.84
2023-05-02T02:38:47.796Z,2.08
2023-05-02T02:41:33.155Z,1.90
2023-05-02T02:44:18.626Z,2.08
2023-05-02T02:47:03.521Z,1.89
2023-05-02T02:49:48.764Z,1.88
2023-05-02T02:52:34.159Z,2.05
2023-05-02T02:55:19.635Z,1.91
2023-05-02T02:58:05.066Z,2.02
2023-05-02T03:00:50.346Z,1.95
2023-05-02T03:03:35.959Z,2.02
2023-05-02T03:06:21.334Z,1.82
2023-05-02T03:09:06.727Z,1.84
2023-05-02T03:11:52.284Z,1.79
2023-05-02T03:14:37.362Z,1.77
2023-05-02T03:17:24.960Z,1.85
2023-05-02T03:20:11.211Z,1.87
2023-05-02T03:22:56.506Z,1.73
2023-05-02T03:25:41.471Z,1.80
2023-05-02T03:28:26.816Z,1.73
2023-05-02T03:31:12.293Z,1.90
2023-05-02T03:33:57.810Z,1.91
2023-05-02T03:36:43.009Z,1.99
2023-05-02T03:39:28.380Z,1.97
2023-05-02T03:42:13.897Z,1.93
2023-05-02T03:44:59.081Z,1.86
2023-05-02T03:47:44.545Z,1.91
2023-05-02T03:50:29.737Z,1.68
2023-05-02T03:53:15.058Z,1.77
2023-05-02T03:56:00.264Z,1.80
2023-05-02T03:58:45.754Z,1.73
2023-05-02T04:01:30.962Z,1.85
2023-05-02T04:04:16.051Z,1.80
2023-05-02T04:07:01.076Z,1.93
2023-05-02T04:09:46.344Z,1.94
2023-05-02T04:12:31.921Z,1.91
2023-05-02T04:15:17.218Z,1.83
2023-05-02T04:18:02.515Z,1.88
2023-05-02T04:20:47.850Z,1.74
2023-05-02T04:23:33.376Z,1.81
2023-05-02T04:26:18.622Z,1.85
2023-05-02T04:29:03.869Z,1.59
2023-05-02T04:31:48.830Z,1.91
2023-05-02T04:34:34.011Z,1.81
2023-05-02T04:37:20.380Z,1.74
2023-05-02T04:40:06.167Z,1.70
2023-05-02T04:42:51.507Z,1.88
2023-05-02T04:45:37.073Z,1.92
2023-05-02T04:48:22.498Z,1.82
2023-05-02T04:51:07.899Z,1.87
2023-05-02T04:53:53.199Z,1.84
2023-05-02T04:56:38.591Z,1.88
2023-05-02T04:59:24.085Z,1.96
2023-05-02T05:02:09.605Z,1.79
2023-05-02T05:04:54.896Z,1.97
2023-05-02T05:07:40.123Z,1.72
2023-05-02T05:10:25.553Z,1.93
2023-05-02T05:13:10.870Z,1.85
2023-05-02T05:15:56.360Z,1.80
2023-05-02T05:18:41.864Z,1.97
2023-05-02T05:21:26.959Z,1.76
2023-05-02T05:24:12.415Z,1.86
2023-05-02T05:26:57.736Z,1.94
2023-05-02T05:29:43.128Z,1.88
2023-05-02T05:32:28.107Z,2.08
2023-05-02T05:35:13.269Z,2.02
2023-05-02T05:37:58.585Z,2.12
2023-05-02T05:40:43.921Z,2.01
2023-05-02T05:43:29.313Z,2.38
2023-05-02T05:46:14.474Z,2.20
2023-05-02T05:48:59.974Z,2.53
2023-05-02T05:51:45.218Z,2.67
2023-05-02T05:54:30.609Z,2.63
2023-05-02T05:57:16.013Z,2.54
2023-05-02T06:00:01.290Z,2.47
2023-05-02T06:02:47.120Z,2.61
2023-05-02T06:05:32.297Z,2.40
2023-05-02T06:08:17.474Z,2.68
2023-05-02T06:11:02.863Z,2.40
2023-05-02T06:13:48.233Z,2.55
2023-05-02T06:16:33.932Z,2.63
2023-05-02T06:19:19.055Z,2.63
2023-05-02T06:22:04.384Z,2.52
2023-05-02T06:24:49.718Z,2.82
2023-05-02T06:27:35.119Z,2.53
2023-05-02T06:30:20.609Z,2.75
2023-05-02T06:33:05.817Z,2.84
2023-05-02T06:35:51.197Z,2.88
2023-05-02T06:38:36.313Z,2.92
2023-05-02T06:41:21.560Z,2.94
2023-05-02T06:44:07.102Z,2.63
2023-05-02T06:46:52.393Z,2.92
2023-05-02T06:49:37.814Z,2.76
2023-05-02T06:52:23.085Z,2.83
2023-05-02T06:55:08.415Z,2.82
2023-05-02T06:57:54.006Z,2.99
2023-05-02T07:00:39.233Z,3.07
2023-05-02T07:03:24.752Z,2.79
2023-05-02T07:06:09.986Z,2.99
2023-05-02T07:08:55.382Z,2.77
2023-05-02T07:11:40.879Z,2.89
2023-05-02T07:14:26.212Z,2.89
2023-05-02T07:17:12.061Z,2.81
2023-05-02T07:19:57.234Z,2.63
2023-05-02T07:22:42.490Z,2.63
2023-05-02T07:25:27.923Z,2.95
2023-05-02T07:28:13.219Z,2.78
2023-05-02T07:30:58.626Z,2.85
2023-05-02T07:33:43.986Z,2.65
2023-05-02T07:36:29.459Z,2.79
2023-05-02T07:39:14.689Z,2.70
2023-05-02T07:41:59.913Z,2.57
2023-05-02T07:44:45.445Z,2.85
2023-05-02T07:47:30.759Z,2.95
2023-05-02T07:50:17.292Z,2.68
2023-05-02T07:53:02.718Z,2.70
2023-05-02T07:55:48.071Z,2.86
2023-05-02T07:58:33.432Z,2.71
2023-05-02T08:01:18.583Z,2.81
2023-05-02T08:04:04.146Z,2.79
2023-05-02T08:06:49.248Z,2.66
2023-05-02T08:09:34.541Z,2.81
2023-05-02T08:12:20.076Z,2.89
2023-05-02T08:15:05.408Z,2.79
2023-05-02T08:17:50.575Z,2.90
2023-05-02T08:20:35.795Z,2.84
2023-05-02T08:23:21.263Z,2.80
2023-05-02T08:26:06.748Z,3.10
2023-05-02T08:28:52.013Z,3.06
2023-05-02T08:31:37.490Z,3.15
2023-05-02T08:34:22.678Z,3.02
2023-05-02T08:37:07.952Z,3.19
2023-05-02T08:39:53.334Z,3.09
2023-05-02T08:42:38.688Z,3.11
2023-05-02T08:45:24.101Z,2.93
2023-05-02T08:48:09.287Z,2.98
2023-05-02T08:50:54.802Z,2.81
2023-05-02T08:53:43.230Z,2.95
2023-05-02T08:56:28.560Z,2.93
2023-05-02T08:59:13.769Z,2.93
2023-05-02T09:01:59.121Z,3.01
2023-05-02T09:04:44.307Z,2.88
2023-05-02T09:07:29.416Z,2.90
2023-05-02T09:10:14.871Z,3.17
2023-05-02T09:13:00.301Z,3.24
2023-05-02T09:15:45.636Z,3.43
2023-05-02T09:18:31.085Z,3.22
2023-05-02T09:21:18.036Z,3.31
2023-05-02T09:24:05.107Z,3.21
2023-05-02T09:26:50.308Z,3.44
2023-05-02T09:29:35.621Z,3.31
2023-05-02T09:32:21.043Z,3.38
2023-05-02T09:35:06.282Z,3.36
2023-05-02T09:37:51.533Z,3.30
2023-05-02T09:40:36.965Z,3.12
2023-05-02T09:43:22.342Z,3.51
2023-05-02T09:46:07.767Z,3.40
2023-05-02T09:48:53.023Z,3.56
2023-05-02T09:51:38.428Z,3.33
2023-05-02T09:54:23.811Z,3.11
2023-05-02T09:57:09.276Z,3.21
2023-05-02T09:59:54.616Z,3.27
2023-05-02T10:02:40.065Z,3.20
2023-05-02T10:05:25.499Z,3.25
2023-05-02T10:08:10.717Z,3.33
2023-05-02T10:10:56.054Z,3.25
2023-05-02T10:13:41.462Z,3.98
2023-05-02T10:16:26.850Z,6.43
2023-05-02T10:19:12.321Z,6.14
2023-05-02T10:21:57.782Z,8.00
2023-05-02T10:24:43.035Z,9.14
2023-05-02T10:27:28.363Z,9.47
2023-05-02T10:30:13.798Z,9.43
2023-05-02T10:32:59.313Z,9.04
2023-05-02T10:35:44.637Z,9.38
2023-05-02T10:38:29.949Z,8.76
2023-05-02T10:41:15.276Z,9.20
2023-05-02T10:44:00.788Z,8.43
2023-05-02T10:46:46.125Z,8.33
2023-05-02T10:49:31.436Z,8.13
2023-05-02T10:52:16.872Z,8.05
2023-05-02T10:55:02.274Z,8.00
2023-05-02T10:57:47.491Z,7.32
2023-05-02T11:00:33.069Z,6.81
2023-05-02T11:03:18.523Z,6.23
2023-05-02T11:06:04.109Z,6.15
2023-05-02T11:08:49.376Z,6.12
2023-05-02T11:11:34.685Z,5.50
2023-05-02T11:14:20.305Z,5.57
2023-05-02T11:17:05.412Z,5.21
2023-05-02T11:19:50.636Z,5.61
2023-05-02T11:22:35.817Z,5.36
2023-05-02T11:25:21.235Z,5.33
2023-05-02T11:28:06.254Z,5.02
2023-05-02T11:30:51.647Z,5.30
2023-05-02T11:33:37.029Z,5.34
2023-05-02T11:36:22.557Z,5.13
2023-05-02T11:39:07.983Z,4.94
2023-05-02T11:41:53.168Z,5.03
2023-05-02T11:44:38.620Z,5.37
2023-05-02T11:47:23.863Z,5.17
2023-05-02T11:50:09.248Z,5.05
2023-05-02T11:52:54.752Z,5.09
2023-05-02T11:55:40.041Z,5.22
2023-05-02T11:58:25.085Z,4.88
2023-05-02T12:01:11.108Z,4.87
2023-05-02T12:03:56.234Z,4.81
2023-05-02T12:06:41.672Z,5.12
2023-05-02T12:09:26.888Z,4.89
2023-05-02T12:12:12.274Z,4.79
2023-05-02T12:14:57.426Z,4.78
2023-05-02T12:17:42.459Z,4.72
2023-05-02T12:20:27.615Z,4.71
2023-05-02T12:23:12.935Z,4.53
2023-05-02T12:25:58.401Z,4.72
2023-05-02T12:28:43.455Z,4.87
2023-05-02T12:31:28.500Z,4.67
2023-05-02T12:34:13.816Z,4.64
2023-05-02T12:36:59.387Z,4.51
2023-05-02T12:39:44.640Z,4.44
2023-05-02T12:42:30.004Z,4.51
2023-05-02T12:45:15.400Z,4.53
2023-05-02T12:48:00.871Z,4.35
2023-05-02T12:50:46.262Z,4.33
2023-05-02T12:53:31.523Z,4.15
2023-05-02T12:56:16.836Z,4.32
2023-05-02T12:59:02.221Z,4.37
2023-05-02T13:01:47.570Z,4.39
2023-05-02T13:04:32.908Z,4.22
2023-05-02T13:07:18.144Z,4.27
2023-05-02T13:10:03.588Z,4.10
2023-05-02T13:12:48.809Z,4.29
2023-05-02T13:15:34.082Z,4.35
2023-05-02T13:18:19.621Z,4.04
2023-05-02T13:21:05.150Z,4.11
2023-05-02T13:23:52.760Z,4.34
2023-05-02T13:26:37.902Z,4.07
2023-05-02T13:29:23.146Z,3.90
2023-05-02T13:32:08.591Z,4.23
2023-05-02T13:34:53.906Z,3.89
2023-05-02T13:37:39.346Z,4.15
2023-05-02T13:40:24.728Z,3.95
2023-05-02T13:43:10.064Z,4.05
2023-05-02T13:45:55.658Z,4.02
2023-05-02T13:48:41.107Z,3.77
2023-05-02T13:51:26.332Z,3.66
2023-05-02T13:54:11.725Z,3.87
2023-05-02T13:56:57.062Z,3.81
2023-05-02T13:59:42.510Z,4.06
2023-05-02T14:02:27.806Z,3.78
2023-05-02T14:05:13.144Z,3.74
2023-05-02T14:08:01.583Z,4.05
2023-05-02T14:10:46.779Z,3.63
2023-05-02T14:13:31.689Z,3.72
2023-05-02T14:16:17.031Z,3.73
2023-05-02T14:19:02.464Z,3.82
2023-05-02T14:21:47.719Z,3.76
2023-05-02T14:24:32.902Z,3.64
2023-05-02T14:27:21.189Z,3.63
2023-05-02T14:30:06.300Z,3.63
2023-05-02T14:32:51.625Z,3.40
2023-05-02T14:35:36.857Z,3.48
2023-05-02T14:38:22.399Z,3.70
2023-05-02T14:41:07.834Z,3.88
2023-05-02T14:43:53.094Z,3.60
2023-05-02T14:46:38.294Z,3.88
2023-05-02T14:49:23.557Z,3.57
2023-05-02T14:52:08.811Z,3.76
2023-05-02T14:54:54.188Z,3.53
2023-05-02T14:57:39.492Z,3.67
2023-05-02T15:00:24.964Z,3.52
2023-05-02T15:03:10.317Z,3.33
2023-05-02T15:05:55.567Z,3.45
2023-05-02T15:08:44.058Z,3.40
2023-05-02T15:11:29.375Z,3.48
2023-05-02T15:14:14.883Z,3.10
2023-05-02T15:16:59.918Z,3.54
2023-05-02T15:19:45.296Z,3.54
2023-05-02T15:22:30.281Z,3.36
2023-05-02T15:25:15.746Z,3.29
2023-05-02T15:28:05.147Z,3.58
2023-05-02T15:30:51.187Z,3.34
2023-05-02T15:33:36.504Z,3.35
2023-05-02T15:36:22.115Z,3.28
2023-05-02T15:39:07.397Z,3.34
2023-05-02T15:41:52.538Z,3.43
2023-05-02T15:44:37.956Z,3.22
2023-05-02T15:47:23.046Z,3.17
2023-05-02T15:50:08.962Z,3.13
2023-05-02T15:52:54.029Z,3.31
2023-05-02T15:55:39.455Z,3.22
2023-05-02T15:58:24.702Z,3.22
2023-05-02T16:01:10.120Z,3.27
2023-05-02T16:03:55.442Z,3.25
2023-05-02T16:06:40.762Z,3.06
2023-05-02T16:09:26.143Z,3.24
2023-05-02T16:12:11.278Z,3.35
2023-05-02T16:14:56.552Z,3.24
2023-05-02T16:17:41.800Z,3.35
2023-05-02T16:20:26.969Z,3.27
2023-05-02T16:23:12.278Z,3.43
2023-05-02T16:25:57.448Z,3.59
2023-05-02T16:28:42.803Z,3.57
2023-05-02T16:31:27.975Z,3.57
2023-05-02T16:34:13.401Z,3.60
2023-05-02T16:36:58.688Z,3.50
2023-05-02T16:39:44.059Z,3.67
2023-05-02T16:42:29.478Z,3.41
2023-05-02T16:45:14.832Z,3.63
2023-05-02T16:48:00.355Z,3.66
2023-05-02T16:50:46.643Z,3.39
2023-05-02T16:53:32.679Z,3.51
2023-05-02T16:56:18.110Z,3.59
2023-05-02T16:59:03.441Z,3.49
2023-05-02T17:01:48.910Z,3.50
2023-05-02T17:04:34.293Z,3.49
2023-05-02T17:07:19.597Z,3.57
2023-05-02T17:10:04.813Z,3.56
2023-05-02T17:12:50.443Z,3.41
2023-05-02T17:15:35.846Z,3.44
2023-05-02T17:18:21.078Z,3.51
2023-05-02T17:21:06.421Z,3.50
2023-05-02T17:23:51.762Z,3.41
2023-05-02T17:26:36.871Z,3.33
2023-05-02T17:29:22.101Z,3.33
2023-05-02T17:32:07.393Z,3.28
2023-05-02T17:34:52.933Z,3.26
2023-05-02T17:37:38.119Z,3.20
2023-05-02T17:40:23.451Z,3.34
2023-05-02T17:43:09.002Z,3.27
2023-05-02T17:45:54.260Z,3.43
2023-05-02T17:48:39.735Z,3.16
2023-05-02T17:51:24.876Z,3.08
2023-05-02T17:54:10.213Z,3.00
2023-05-02T17:56:55.608Z,3.10
2023-05-02T17:59:40.980Z,2.94
2023-05-02T18:02:26.313Z,2.99
2023-05-02T18:05:11.618Z,3.04
2023-05-02T18:07:56.822Z,2.76
2023-05-02T18:10:42.212Z,3.01
2023-05-02T18:13:27.562Z,2.91
2023-05-02T18:16:12.900Z,3.16
2023-05-02T18:18:58.207Z,3.38
2023-05-02T18:21:43.772Z,3.40
2023-05-02T18:24:29.025Z,3.31
2023-05-02T18:27:14.249Z,3.04
2023-05-02T18:29:59.385Z,3.27
2023-05-02T18:32:44.805Z,3.15
2023-05-02T18:35:30.175Z,3.22
2023-05-02T18:38:15.353Z,3.26
2023-05-02T18:41:00.495Z,3.22
2023-05-02T18:43:46.871Z,3.12
2023-05-02T18:46:32.253Z,3.06
2023-05-02T18:49:17.459Z,3.12
2023-05-02T18:52:02.694Z,3.04
2023-05-02T18:54:48.241Z,3.16
2023-05-02T18:57:33.401Z,3.17
2023-05-02T19:00:18.647Z,3.10
2023-05-02T19:03:04.088Z,3.05
2023-05-02T19:05:51.078Z,2.87
2023-05-02T19:08:36.243Z,3.07
2023-05-02T19:11:21.448Z,3.12
2023-05-02T19:14:07.940Z,2.93
2023-05-02T19:16:56.221Z,3.06
2023-05-02T19:19:41.397Z,3.05
2023-05-02T19:22:26.716Z,3.08
2023-05-02T19:25:12.369Z,3.14
2023-05-02T19:27:57.595Z,3.00
2023-05-02T19:30:42.738Z,3.10
2023-05-02T19:33:27.729Z,3.31
2023-05-02T19:36:13.122Z,3.13
2023-05-02T19:38:58.524Z,3.06
2023-05-02T19:41:43.861Z,3.03
2023-05-02T19:44:29.249Z,2.89
2023-05-02T19:47:14.309Z,3.05
2023-05-02T19:49:59.391Z,2.96
2023-05-02T19:52:45.330Z,2.78
2023-05-02T19:55:30.767Z,3.05
2023-05-02T19:58:16.588Z,2.83
2023-05-02T20:01:01.754Z,2.94
2023-05-02T20:03:47.952Z,2.88
2023-05-02T20:06:33.259Z,3.08
2023-05-02T20:09:19.070Z,2.86
2023-05-02T20:12:04.375Z,2.95
2023-05-02T20:14:49.610Z,2.92
2023-05-02T20:17:34.883Z,3.19
2023-05-02T20:20:20.280Z,2.85
2023-05-02T20:23:06.076Z,2.86
2023-05-02T20:25:51.250Z,2.93
2023-05-02T20:28:36.675Z,3.05
2023-05-02T20:31:22.189Z,2.96
2023-05-02T20:34:07.539Z,2.95
2023-05-02T20:36:52.835Z,2.78
2023-05-02T20:39:41.016Z,2.95
2023-05-02T20:42:26.441Z,2.91
2023-05-02T20:45:11.960Z,2.75
2023-05-02T20:47:57.270Z,2.88
2023-05-02T20:50:42.596Z,3.03
2023-05-02T20:53:27.918Z,2.88
2023-05-02T20:56:13.580Z,2.96
2023-05-02T20:59:01.936Z,2.86
2023-05-02T21:01:47.294Z,2.88
2023-05-02T21:04:32.791Z,3.12
2023-05-02T21:07:18.009Z,2.94
2023-05-02T21:10:03.601Z,2.97
2023-05-02T21:12:48.905Z,2.83
2023-05-02T21:15:34.218Z,2.75
2023-05-02T21:18:19.634Z,2.85
2023-05-02T21:21:04.817Z,2.86
2023-05-02T21:23:50.046Z,2.89
2023-05-02T21:26:35.428Z,3.12
2023-05-02T21:29:20.901Z,3.00
2023-05-02T21:32:06.397Z,2.81
2023-05-02T21:34:51.578Z,2.72
2023-05-02T21:37:36.912Z,2.94
2023-05-02T21:40:22.508Z,2.66
2023-05-02T21:43:07.995Z,2.76
2023-05-02T21:45:53.443Z,2.71
2023-05-02T21:48:38.796Z,2.69
2023-05-02T21:51:24.261Z,2.78
2023-05-02T21:54:09.606Z,2.64
2023-05-02T21:56:54.958Z,2.70
2023-05-02T21:59:40.343Z,2.80
2023-05-02T22:02:25.705Z,2.71
2023-05-02T22:05:11.134Z,2.77
2023-05-02T22:07:56.436Z,2.71
2023-05-02T22:10:42.001Z,2.82
2023-05-02T22:13:27.326Z,2.85
2023-05-02T22:16:12.802Z,2.67
2023-05-02T22:18:58.288Z,2.93
2023-05-02T22:21:43.468Z,2.77
2023-05-02T22:24:28.967Z,2.79
2023-05-02T22:27:14.285Z,2.82
2023-05-02T22:29:59.523Z,2.83
2023-05-02T22:32:44.507Z,2.67
2023-05-02T22:35:29.861Z,2.67
2023-05-02T22:38:15.251Z,2.79
2023-05-02T22:41:00.709Z,2.75
2023-05-02T22:43:46.087Z,2.80
2023-05-02T22:46:31.511Z,2.64
2023-05-02T22:49:16.459Z,2.63
2023-05-02T22:52:01.722Z,2.97
2023-05-02T22:54:47.012Z,2.93
2023-05-02T22:57:32.317Z,2.82
2023-05-02T23:00:17.588Z,2.57
2023-05-02T23:03:02.966Z,2.63
2023-05-02T23:05:48.234Z,2.43
2023-05-02T23:08:33.626Z,2.97
2023-05-02T23:11:19.038Z,2.55
2023-05-02T23:14:04.545Z,2.67
2023-05-02T23:16:49.827Z,2.51
2023-05-02T23:19:35.007Z,2.74
2023-05-02T23:22:20.387Z,2.59
2023-05-02T23:25:05.820Z,2.73
2023-05-02T23:27:51.109Z,2.68
2023-05-02T23:30:36.622Z,2.54
2023-05-02T23:33:21.872Z,2.74
2023-05-02T23:36:07.163Z,2.73
2023-05-02T23:38:52.604Z,2.65
2023-05-02T23:41:37.984Z,2.59
2023-05-02T23:44:23.361Z,2.56
2023-05-02T23:47:08.739Z,2.64
2023-05-02T23:49:53.932Z,2.70
2023-05-02T23:52:39.411Z,2.53
2023-05-02T23:55:24.650Z,2.69
2023-05-02T23:58:10.127Z,2.60
